sensor_id;sensor_type;location;lat;lon;timestamp;pressure;altitude;pressure_sealevel;temperature;humidity
12213;BME280;6169;44.158;22.788;2023-06-01T00:03:33;101192.97;;;20.63;69.25
12213;BME280;6169;44.158;22.788;2023-06-01T00:08:37;101184.38;;;20.65;69.03
12213;BME280;6169;44.158;22.788;2023-06-01T00:13:41;101187.72;;;20.91;67.63
12213;BME280;6169;44.158;22.788;2023-06-01T00:18:44;101171.63;;;20.93;68.44
12213;BME280;6169;44.158;22.788;2023-06-01T00:23:46;101178.13;;;20.83;67.41
12213;BME280;6169;44.158;22.788;2023-06-01T00:28:50;101178.03;;;20.64;68.08
12213;BME280;6169;44.158;22.788;2023-06-01T00:33:52;101166.16;;;20.05;70.50
12213;BME280;6169;44.158;22.788;2023-06-01T00:38:54;101166.94;;;20.11;71.13
12213;BME280;6169;44.158;22.788;2023-06-01T00:44:04;101158.97;;;20.15;70.36
12213;BME280;6169;44.158;22.788;2023-06-01T00:49:06;101161.34;;;20.26;69.88
12213;BME280;6169;44.158;22.788;2023-06-01T00:54:09;101167.16;;;20.20;70.34
12213;BME280;6169;44.158;22.788;2023-06-01T00:59:13;101170.25;;;20.18;70.39
12213;BME280;6169;44.158;22.788;2023-06-01T01:04:16;101174.81;;;20.28;69.80
12213;BME280;6169;44.158;22.788;2023-06-01T01:09:30;101156.84;;;20.31;70.11
12213;BME280;6169;44.158;22.788;2023-06-01T01:14:39;101162.28;;;20.12;70.52
12213;BME280;6169;44.158;22.788;2023-06-01T01:19:58;101169.06;;;20.24;70.16
12213;BME280;6169;44.158;22.788;2023-06-01T01:25:20;101170.41;;;19.98;70.32
12213;BME280;6169;44.158;22.788;2023-06-01T01:30:26;101167.25;;;20.15;70.30
12213;BME280;6169;44.158;22.788;2023-06-01T01:35:30;101170.06;;;20.04;70.28
12213;BME280;6169;44.158;22.788;2023-06-01T01:40:33;101170.88;;;20.05;69.75
12213;BME280;6169;44.158;22.788;2023-06-01T01:45:37;101156.50;;;20.08;69.75
12213;BME280;6169;44.158;22.788;2023-06-01T01:50:48;101162.47;;;19.86;70.25
12213;BME280;6169;44.158;22.788;2023-06-01T01:55:53;101165.31;;;20.10;69.96
12213;BME280;6169;44.158;22.788;2023-06-01T02:00:58;101162.22;;;20.17;70.43
12213;BME280;6169;44.158;22.788;2023-06-01T02:06:00;101157.56;;;20.17;69.32
12213;BME280;6169;44.158;22.788;2023-06-01T02:11:02;101161.94;;;19.89;71.01
12213;BME280;6169;44.158;22.788;2023-06-01T02:16:06;101160.03;;;20.14;69.03
12213;BME280;6169;44.158;22.788;2023-06-01T02:21:08;101162.47;;;19.86;70.42
12213;BME280;6169;44.158;22.788;2023-06-01T02:26:11;101167.47;;;19.84;70.73
12213;BME280;6169;44.158;22.788;2023-06-01T02:31:14;101165.78;;;19.88;69.34
12213;BME280;6169;44.158;22.788;2023-06-01T02:36:17;101176.94;;;20.07;68.59
12213;BME280;6169;44.158;22.788;2023-06-01T02:41:19;101172.03;;;19.99;69.60
12213;BME280;6169;44.158;22.788;2023-06-01T02:46:23;101176.34;;;20.15;68.86
12213;BME280;6169;44.158;22.788;2023-06-01T02:51:25;101174.63;;;20.72;65.58
12213;BME280;6169;44.158;22.788;2023-06-01T02:56:28;101179.03;;;20.49;66.59
12213;BME280;6169;44.158;22.788;2023-06-01T03:01:32;101178.84;;;20.41;67.31
12213;BME280;6169;44.158;22.788;2023-06-01T03:06:36;101182.63;;;20.50;66.22
12213;BME280;6169;44.158;22.788;2023-06-01T03:11:40;101186.88;;;20.66;65.20
12213;BME280;6169;44.158;22.788;2023-06-01T03:16:43;101184.88;;;20.14;66.85
12213;BME280;6169;44.158;22.788;2023-06-01T03:21:46;101190.91;;;19.87;68.68
12213;BME280;6169;44.158;22.788;2023-06-01T03:26:48;101187.38;;;19.81;68.86
12213;BME280;6169;44.158;22.788;2023-06-01T03:31:52;101197.63;;;20.10;67.31
12213;BME280;6169;44.158;22.788;2023-06-01T03:36:54;101199.03;;;20.36;67.23
12213;BME280;6169;44.158;22.788;2023-06-01T03:41:57;101201.81;;;20.65;65.17
12213;BME280;6169;44.158;22.788;2023-06-01T03:47:00;101195.25;;;20.56;65.87
12213;BME280;6169;44.158;22.788;2023-06-01T03:52:03;101199.03;;;20.36;67.24
12213;BME280;6169;44.158;22.788;2023-06-01T03:57:06;101194.16;;;20.81;64.88
12213;BME280;6169;44.158;22.788;2023-06-01T04:02:10;101196.97;;;20.76;66.06
12213;BME280;6169;44.158;22.788;2023-06-01T04:07:13;101204.75;;;20.98;64.90
12213;BME280;6169;44.158;22.788;2023-06-01T04:12:19;101201.22;;;21.16;64.50
12213;BME280;6169;44.158;22.788;2023-06-01T04:17:22;101198.63;;;21.01;65.24
12213;BME280;6169;44.158;22.788;2023-06-01T04:22:25;101202.31;;;20.67;66.39
12213;BME280;6169;44.158;22.788;2023-06-01T04:27:27;101198.00;;;20.85;66.15
12213;BME280;6169;44.158;22.788;2023-06-01T04:32:30;101203.22;;;20.87;66.99
12213;BME280;6169;44.158;22.788;2023-06-01T04:37:33;101207.06;;;20.91;66.29
12213;BME280;6169;44.158;22.788;2023-06-01T04:42:37;101206.69;;;20.74;67.02
12213;BME280;6169;44.158;22.788;2023-06-01T04:47:43;101210.97;;;21.09;65.18
12213;BME280;6169;44.158;22.788;2023-06-01T04:52:47;101210.22;;;20.50;65.43
12213;BME280;6169;44.158;22.788;2023-06-01T04:57:50;101216.53;;;20.85;63.66
12213;BME280;6169;44.158;22.788;2023-06-01T05:02:54;101214.97;;;20.98;64.31
12213;BME280;6169;44.158;22.788;2023-06-01T05:07:56;101214.81;;;21.13;61.59
12213;BME280;6169;44.158;22.788;2023-06-01T05:12:58;101198.66;;;21.20;62.27
12213;BME280;6169;44.158;22.788;2023-06-01T05:18:02;101212.59;;;21.72;58.58
12213;BME280;6169;44.158;22.788;2023-06-01T05:23:04;101223.16;;;21.51;59.56
12213;BME280;6169;44.158;22.788;2023-06-01T05:28:06;101213.06;;;21.60;58.82
12213;BME280;6169;44.158;22.788;2023-06-01T05:33:10;101212.78;;;21.62;61.79
12213;BME280;6169;44.158;22.788;2023-06-01T05:38:12;101208.84;;;22.00;59.92
12213;BME280;6169;44.158;22.788;2023-06-01T05:43:15;101187.63;;;22.42;57.33
12213;BME280;6169;44.158;22.788;2023-06-01T05:48:18;101216.56;;;21.85;57.82
12213;BME280;6169;44.158;22.788;2023-06-01T05:53:20;101218.06;;;21.96;59.29
12213;BME280;6169;44.158;22.788;2023-06-01T05:58:25;101218.09;;;22.10;59.51
12213;BME280;6169;44.158;22.788;2023-06-01T06:03:28;101225.31;;;22.43;57.99
12213;BME280;6169;44.158;22.788;2023-06-01T06:08:30;101228.41;;;22.69;57.88
12213;BME280;6169;44.158;22.788;2023-06-01T06:13:33;101230.09;;;22.84;56.53
12213;BME280;6169;44.158;22.788;2023-06-01T06:18:36;101236.25;;;23.09;55.70
12213;BME280;6169;44.158;22.788;2023-06-01T06:23:38;101229.53;;;23.37;56.91
12213;BME280;6169;44.158;22.788;2023-06-01T06:28:41;101230.69;;;23.50;55.73
12213;BME280;6169;44.158;22.788;2023-06-01T06:33:45;101235.59;;;24.35;52.66
12213;BME280;6169;44.158;22.788;2023-06-01T06:38:47;101229.28;;;23.98;54.34
12213;BME280;6169;44.158;22.788;2023-06-01T06:43:49;101236.31;;;23.59;56.15
12213;BME280;6169;44.158;22.788;2023-06-01T06:48:53;101228.63;;;23.42;58.78
12213;BME280;6169;44.158;22.788;2023-06-01T06:53:55;101238.88;;;23.42;59.80
12213;BME280;6169;44.158;22.788;2023-06-01T06:58:59;101237.03;;;23.87;57.12
12213;BME280;6169;44.158;22.788;2023-06-01T07:04:03;101243.84;;;23.45;57.87
12213;BME280;6169;44.158;22.788;2023-06-01T07:09:06;101242.41;;;23.33;58.36
12213;BME280;6169;44.158;22.788;2023-06-01T07:14:09;101248.25;;;23.46;57.42
12213;BME280;6169;44.158;22.788;2023-06-01T07:19:13;101249.88;;;23.83;56.64
12213;BME280;6169;44.158;22.788;2023-06-01T07:24:17;101252.16;;;23.58;58.21
12213;BME280;6169;44.158;22.788;2023-06-01T07:29:20;101248.78;;;23.20;60.31
12213;BME280;6169;44.158;22.788;2023-06-01T07:34:24;101242.91;;;23.35;59.03
12213;BME280;6169;44.158;22.788;2023-06-01T07:39:26;101242.44;;;22.45;63.26
12213;BME280;6169;44.158;22.788;2023-06-01T07:44:28;101253.59;;;23.28;59.89
12213;BME280;6169;44.158;22.788;2023-06-01T07:49:32;101251.38;;;23.80;57.86
12213;BME280;6169;44.158;22.788;2023-06-01T07:54:37;101241.97;;;23.54;58.54
12213;BME280;6169;44.158;22.788;2023-06-01T07:59:39;101245.28;;;23.78;58.21
12213;BME280;6169;44.158;22.788;2023-06-01T08:04:42;101240.59;;;23.65;56.65
12213;BME280;6169;44.158;22.788;2023-06-01T08:09:45;101251.50;;;24.43;55.29
12213;BME280;6169;44.158;22.788;2023-06-01T08:14:47;101243.16;;;24.43;54.28
12213;BME280;6169;44.158;22.788;2023-06-01T08:19:51;101245.63;;;24.76;53.44
12213;BME280;6169;44.158;22.788;2023-06-01T08:24:53;101238.91;;;24.68;53.57
12213;BME280;6169;44.158;22.788;2023-06-01T08:29:55;101249.78;;;24.33;54.98
12213;BME280;6169;44.158;22.788;2023-06-01T08:34:59;101241.88;;;24.71;53.24
12213;BME280;6169;44.158;22.788;2023-06-01T08:40:01;101235.25;;;24.36;55.26
12213;BME280;6169;44.158;22.788;2023-06-01T08:45:06;101236.47;;;24.75;54.33
12213;BME280;6169;44.158;22.788;2023-06-01T08:50:10;101229.81;;;25.42;51.11
12213;BME280;6169;44.158;22.788;2023-06-01T08:55:13;101223.06;;;24.68;52.42
12213;BME280;6169;44.158;22.788;2023-06-01T09:00:16;101214.50;;;24.65;51.94
12213;BME280;6169;44.158;22.788;2023-06-01T09:05:20;101202.91;;;25.20;52.20
12213;BME280;6169;44.158;22.788;2023-06-01T09:10:23;101208.72;;;25.58;51.80
12213;BME280;6169;44.158;22.788;2023-06-01T09:15:26;101203.31;;;25.62;49.30
12213;BME280;6169;44.158;22.788;2023-06-01T09:20:30;101200.38;;;24.92;51.37
12213;BME280;6169;44.158;22.788;2023-06-01T09:25:33;101205.97;;;24.30;52.30
12213;BME280;6169;44.158;22.788;2023-06-01T09:30:40;101204.25;;;24.74;53.04
12213;BME280;6169;44.158;22.788;2023-06-01T09:35:45;101201.19;;;25.33;52.41
12213;BME280;6169;44.158;22.788;2023-06-01T09:40:56;101194.66;;;25.64;49.63
12213;BME280;6169;44.158;22.788;2023-06-01T09:46:05;101199.88;;;25.39;50.34
12213;BME280;6169;44.158;22.788;2023-06-01T09:51:21;101192.19;;;25.88;47.54
12213;BME280;6169;44.158;22.788;2023-06-01T09:56:26;101183.19;;;26.85;47.37
12213;BME280;6169;44.158;22.788;2023-06-01T10:01:29;101184.25;;;27.31;44.07
12213;BME280;6169;44.158;22.788;2023-06-01T10:06:37;101182.75;;;27.55;41.56
12213;BME280;6169;44.158;22.788;2023-06-01T10:11:40;101172.22;;;26.80;41.89
12213;BME280;6169;44.158;22.788;2023-06-01T10:16:43;101164.53;;;27.07;42.22
12213;BME280;6169;44.158;22.788;2023-06-01T10:21:47;101167.06;;;27.00;42.20
12213;BME280;6169;44.158;22.788;2023-06-01T10:27:01;101165.75;;;27.48;42.83
12213;BME280;6169;44.158;22.788;2023-06-01T10:32:41;101152.31;;;27.95;40.35
12213;BME280;6169;44.158;22.788;2023-06-01T10:38:21;101140.78;;;27.43;38.82
12213;BME280;6169;44.158;22.788;2023-06-01T10:43:40;101126.56;;;28.23;38.27
12213;BME280;6169;44.158;22.788;2023-06-01T10:48:51;101120.19;;;27.56;39.60
12213;BME280;6169;44.158;22.788;2023-06-01T10:54:25;101109.06;;;28.01;39.00
12213;BME280;6169;44.158;22.788;2023-06-01T10:59:28;101093.69;;;27.74;38.26
12213;BME280;6169;44.158;22.788;2023-06-01T11:04:36;101082.34;;;27.92;39.77
12213;BME280;6169;44.158;22.788;2023-06-01T11:09:44;101077.63;;;28.17;39.38
12213;BME280;6169;44.158;22.788;2023-06-01T11:15:11;101078.91;;;28.07;37.99
12213;BME280;6169;44.158;22.788;2023-06-01T11:20:13;101079.75;;;27.20;40.16
12213;BME280;6169;44.158;22.788;2023-06-01T11:25:18;101074.97;;;28.20;39.99
12213;BME280;6169;44.158;22.788;2023-06-01T11:30:22;101063.56;;;28.25;37.69
12213;BME280;6169;44.158;22.788;2023-06-01T11:35:24;101058.84;;;28.79;38.17
12213;BME280;6169;44.158;22.788;2023-06-01T11:40:29;101057.69;;;28.31;38.40
12213;BME280;6169;44.158;22.788;2023-06-01T11:45:32;101050.88;;;27.82;38.88
12213;BME280;6169;44.158;22.788;2023-06-01T11:50:35;101045.00;;;28.33;37.50
12213;BME280;6169;44.158;22.788;2023-06-01T11:55:49;101033.81;;;29.98;35.76
12213;BME280;6169;44.158;22.788;2023-06-01T12:00:51;101036.38;;;31.29;32.43
12213;BME280;6169;44.158;22.788;2023-06-01T12:05:54;101043.25;;;31.12;30.74
12213;BME280;6169;44.158;22.788;2023-06-01T12:10:58;101016.06;;;31.55;28.64
12213;BME280;6169;44.158;22.788;2023-06-01T12:16:01;101019.75;;;31.20;29.99
12213;BME280;6169;44.158;22.788;2023-06-01T12:21:09;101006.78;;;30.22;30.96
12213;BME280;6169;44.158;22.788;2023-06-01T12:26:13;101002.28;;;31.50;30.81
12213;BME280;6169;44.158;22.788;2023-06-01T12:31:15;100992.78;;;30.57;29.54
12213;BME280;6169;44.158;22.788;2023-06-01T12:36:31;100987.84;;;30.70;31.11
12213;BME280;6169;44.158;22.788;2023-06-01T12:41:36;100985.88;;;30.55;31.27
12213;BME280;6169;44.158;22.788;2023-06-01T12:46:56;100989.59;;;31.36;30.93
12213;BME280;6169;44.158;22.788;2023-06-01T12:51:59;100983.81;;;31.72;29.14
12213;BME280;6169;44.158;22.788;2023-06-01T12:57:04;100972.88;;;31.90;27.19
12213;BME280;6169;44.158;22.788;2023-06-01T13:02:14;100982.25;;;31.97;28.72
12213;BME280;6169;44.158;22.788;2023-06-01T13:07:17;100984.16;;;31.47;28.75
12213;BME280;6169;44.158;22.788;2023-06-01T13:12:21;100982.56;;;32.19;28.30
12213;BME280;6169;44.158;22.788;2023-06-01T13:17:23;100976.94;;;32.76;28.38
12213;BME280;6169;44.158;22.788;2023-06-01T13:22:27;100987.59;;;32.33;28.12
12213;BME280;6169;44.158;22.788;2023-06-01T13:27:31;100980.75;;;32.57;28.77
12213;BME280;6169;44.158;22.788;2023-06-01T13:32:34;100961.31;;;32.48;28.70
12213;BME280;6169;44.158;22.788;2023-06-01T13:37:36;100960.06;;;31.46;28.71
12213;BME280;6169;44.158;22.788;2023-06-01T13:42:40;100947.50;;;30.98;30.38
12213;BME280;6169;44.158;22.788;2023-06-01T13:47:43;100941.72;;;30.32;32.04
12213;BME280;6169;44.158;22.788;2023-06-01T13:52:46;100931.19;;;30.10;32.13
12213;BME280;6169;44.158;22.788;2023-06-01T13:57:50;100927.84;;;30.04;33.49
12213;BME280;6169;44.158;22.788;2023-06-01T14:02:52;100909.16;;;29.92;34.12
12213;BME280;6169;44.158;22.788;2023-06-01T14:07:55;100926.66;;;30.21;33.84
12213;BME280;6169;44.158;22.788;2023-06-01T14:12:58;100922.66;;;30.22;33.23
12213;BME280;6169;44.158;22.788;2023-06-01T14:18:01;100925.75;;;30.17;32.72
12213;BME280;6169;44.158;22.788;2023-06-01T14:23:03;100920.63;;;29.87;33.06
12213;BME280;6169;44.158;22.788;2023-06-01T14:28:09;100905.97;;;30.10;32.86
12213;BME280;6169;44.158;22.788;2023-06-01T14:33:12;100909.22;;;30.12;33.81
12213;BME280;6169;44.158;22.788;2023-06-01T14:38:14;100905.25;;;30.13;34.71
12213;BME280;6169;44.158;22.788;2023-06-01T14:43:18;100914.31;;;30.06;34.76
12213;BME280;6169;44.158;22.788;2023-06-01T14:48:21;100910.09;;;30.16;32.26
12213;BME280;6169;44.158;22.788;2023-06-01T14:53:23;100910.69;;;30.25;32.64
12213;BME280;6169;44.158;22.788;2023-06-01T14:58:27;100902.50;;;29.81;33.28
12213;BME280;6169;44.158;22.788;2023-06-01T15:03:30;100900.09;;;29.83;34.21
12213;BME280;6169;44.158;22.788;2023-06-01T15:08:33;100887.06;;;29.55;33.44
12213;BME280;6169;44.158;22.788;2023-06-01T15:13:37;100880.34;;;29.76;34.12
12213;BME280;6169;44.158;22.788;2023-06-01T15:18:39;100877.81;;;29.23;35.13
12213;BME280;6169;44.158;22.788;2023-06-01T15:23:41;100879.59;;;29.15;35.91
12213;BME280;6169;44.158;22.788;2023-06-01T15:28:45;100868.88;;;29.18;33.74
12213;BME280;6169;44.158;22.788;2023-06-01T15:33:47;100871.03;;;29.08;34.64
12213;BME280;6169;44.158;22.788;2023-06-01T15:38:49;100855.13;;;28.97;33.85
12213;BME280;6169;44.158;22.788;2023-06-01T15:43:53;100856.00;;;29.01;35.23
12213;BME280;6169;44.158;22.788;2023-06-01T15:48:55;100856.13;;;28.20;37.42
12213;BME280;6169;44.158;22.788;2023-06-01T15:53:57;100842.28;;;27.99;37.96
12213;BME280;6169;44.158;22.788;2023-06-01T15:59:01;100859.97;;;28.56;38.16
12213;BME280;6169;44.158;22.788;2023-06-01T16:04:03;100855.41;;;28.63;39.00
12213;BME280;6169;44.158;22.788;2023-06-01T16:09:06;100847.31;;;27.93;42.27
12213;BME280;6169;44.158;22.788;2023-06-01T16:14:10;100855.78;;;28.21;42.45
12213;BME280;6169;44.158;22.788;2023-06-01T16:19:12;100857.72;;;27.80;43.41
12213;BME280;6169;44.158;22.788;2023-06-01T16:24:15;100854.19;;;27.71;44.68
12213;BME280;6169;44.158;22.788;2023-06-01T16:29:18;100846.31;;;27.49;46.10
12213;BME280;6169;44.158;22.788;2023-06-01T16:34:20;100833.50;;;27.72;46.17
12213;BME280;6169;44.158;22.788;2023-06-01T16:39:23;100829.78;;;27.80;44.37
12213;BME280;6169;44.158;22.788;2023-06-01T16:44:26;100828.63;;;27.69;44.41
12213;BME280;6169;44.158;22.788;2023-06-01T16:49:29;100825.97;;;28.13;43.70
12213;BME280;6169;44.158;22.788;2023-06-01T16:54:31;100836.50;;;27.92;44.74
12213;BME280;6169;44.158;22.788;2023-06-01T16:59:36;100830.38;;;27.62;45.65
12213;BME280;6169;44.158;22.788;2023-06-01T17:04:39;100833.94;;;27.74;45.81
12213;BME280;6169;44.158;22.788;2023-06-01T17:09:42;100832.72;;;27.47;46.72
12213;BME280;6169;44.158;22.788;2023-06-01T17:14:46;100831.59;;;27.15;48.13
12213;BME280;6169;44.158;22.788;2023-06-01T17:19:48;100829.97;;;27.26;48.39
12213;BME280;6169;44.158;22.788;2023-06-01T17:24:51;100830.81;;;26.81;49.62
12213;BME280;6169;44.158;22.788;2023-06-01T17:29:54;100823.06;;;26.33;53.12
12213;BME280;6169;44.158;22.788;2023-06-01T17:34:56;100824.00;;;26.58;51.87
12213;BME280;6169;44.158;22.788;2023-06-01T17:39:59;100816.44;;;26.46;53.92
12213;BME280;6169;44.158;22.788;2023-06-01T17:45:03;100812.81;;;26.24;54.42
12213;BME280;6169;44.158;22.788;2023-06-01T17:50:07;100818.34;;;26.12;55.24
12213;BME280;6169;44.158;22.788;2023-06-01T17:55:10;100817.25;;;26.04;56.83
12213;BME280;6169;44.158;22.788;2023-06-01T18:00:15;100830.69;;;26.23;56.43
12213;BME280;6169;44.158;22.788;2023-06-01T18:05:19;100826.88;;;26.28;56.90
12213;BME280;6169;44.158;22.788;2023-06-01T18:10:22;100832.34;;;25.74;57.68
12213;BME280;6169;44.158;22.788;2023-06-01T18:15:25;100841.09;;;25.64;59.11
12213;BME280;6169;44.158;22.788;2023-06-01T18:20:28;100847.25;;;25.40;59.42
12213;BME280;6169;44.158;22.788;2023-06-01T18:25:30;100852.78;;;25.48;58.67
12213;BME280;6169;44.158;22.788;2023-06-01T18:30:34;100844.34;;;25.66;58.82
12213;BME280;6169;44.158;22.788;2023-06-01T18:35:36;100844.44;;;25.48;59.12
12213;BME280;6169;44.158;22.788;2023-06-01T18:40:39;100848.81;;;25.11;59.13
12213;BME280;6169;44.158;22.788;2023-06-01T18:45:43;100856.63;;;25.26;58.82
12213;BME280;6169;44.158;22.788;2023-06-01T18:50:46;100861.22;;;25.31;59.81
12213;BME280;6169;44.158;22.788;2023-06-01T18:55:48;100850.53;;;24.86;60.76
12213;BME280;6169;44.158;22.788;2023-06-01T19:00:51;100868.69;;;24.22;63.96
12213;BME280;6169;44.158;22.788;2023-06-01T19:05:54;100868.34;;;24.07;64.18
12213;BME280;6169;44.158;22.788;2023-06-01T19:10:58;100870.97;;;24.55;62.00
12213;BME280;6169;44.158;22.788;2023-06-01T19:16:06;100866.66;;;23.88;64.07
12213;BME280;6169;44.158;22.788;2023-06-01T19:21:14;100855.28;;;24.16;61.66
12213;BME280;6169;44.158;22.788;2023-06-01T19:26:16;100855.13;;;24.12;62.21
12213;BME280;6169;44.158;22.788;2023-06-01T19:31:24;100861.44;;;23.95;63.58
12213;BME280;6169;44.158;22.788;2023-06-01T19:36:50;100858.81;;;23.99;63.65
12213;BME280;6169;44.158;22.788;2023-06-01T19:41:59;100853.44;;;23.94;64.55
12213;BME280;6169;44.158;22.788;2023-06-01T19:47:06;100839.66;;;23.71;64.51
12213;BME280;6169;44.158;22.788;2023-06-01T19:52:09;100774.56;;;23.29;65.83
12213;BME280;6169;44.158;22.788;2023-06-01T19:57:13;100836.13;;;23.97;64.01
12213;BME280;6169;44.158;22.788;2023-06-01T20:02:43;100846.56;;;24.00;63.27
12213;BME280;6169;44.158;22.788;2023-06-01T20:07:48;100848.03;;;23.97;62.21
12213;BME280;6169;44.158;22.788;2023-06-01T20:12:54;100839.53;;;23.85;62.85
12213;BME280;6169;44.158;22.788;2023-06-01T20:17:59;100849.97;;;23.00;66.53
12213;BME280;6169;44.158;22.788;2023-06-01T20:23:04;100833.72;;;23.15;65.16
12213;BME280;6169;44.158;22.788;2023-06-01T20:28:08;100820.41;;;23.26;64.47
12213;BME280;6169;44.158;22.788;2023-06-01T20:33:18;100834.00;;;23.05;65.51
12213;BME280;6169;44.158;22.788;2023-06-01T20:38:23;100826.53;;;22.61;67.45
12213;BME280;6169;44.158;22.788;2023-06-01T20:43:25;100811.97;;;22.78;66.69
12213;BME280;6169;44.158;22.788;2023-06-01T20:48:39;100810.72;;;22.84;65.99
12213;BME280;6169;44.158;22.788;2023-06-01T20:53:44;100813.69;;;22.65;67.02
12213;BME280;6169;44.158;22.788;2023-06-01T20:58:47;100823.66;;;23.20;64.75
12213;BME280;6169;44.158;22.788;2023-06-01T21:03:51;100805.84;;;22.81;66.47
12213;BME280;6169;44.158;22.788;2023-06-01T21:08:53;100811.06;;;22.60;66.83
12213;BME280;6169;44.158;22.788;2023-06-01T21:13:55;100818.34;;;22.78;64.93
12213;BME280;6169;44.158;22.788;2023-06-01T21:18:59;100816.22;;;22.53;65.24
12213;BME280;6169;44.158;22.788;2023-06-01T21:24:02;100822.97;;;22.60;64.79
12213;BME280;6169;44.158;22.788;2023-06-01T21:29:04;100818.47;;;22.73;65.41
12213;BME280;6169;44.158;22.788;2023-06-01T21:34:10;100831.34;;;22.91;63.83
12213;BME280;6169;44.158;22.788;2023-06-01T21:39:12;100814.69;;;22.69;62.77
12213;BME280;6169;44.158;22.788;2023-06-01T21:44:15;100830.69;;;22.72;63.83
12213;BME280;6169;44.158;22.788;2023-06-01T21:49:19;100815.22;;;22.12;65.80
12213;BME280;6169;44.158;22.788;2023-06-01T21:54:21;100833.38;;;22.04;65.91
12213;BME280;6169;44.158;22.788;2023-06-01T21:59:24;100838.31;;;22.08;65.42
12213;BME280;6169;44.158;22.788;2023-06-01T22:04:28;100831.16;;;21.93;64.80
12213;BME280;6169;44.158;22.788;2023-06-01T22:09:30;100834.16;;;21.69;65.81
12213;BME280;6169;44.158;22.788;2023-06-01T22:14:33;100834.03;;;21.46;67.31
12213;BME280;6169;44.158;22.788;2023-06-01T22:19:36;100827.59;;;21.92;65.81
12213;BME280;6169;44.158;22.788;2023-06-01T22:24:39;100829.66;;;21.73;65.47
12213;BME280;6169;44.158;22.788;2023-06-01T22:29:41;100836.22;;;21.77;66.21
12213;BME280;6169;44.158;22.788;2023-06-01T22:34:45;100834.34;;;21.86;65.90
12213;BME280;6169;44.158;22.788;2023-06-01T22:39:47;100813.34;;;21.30;68.19
12213;BME280;6169;44.158;22.788;2023-06-01T22:44:50;100829.94;;;21.85;64.94
12213;BME280;6169;44.158;22.788;2023-06-01T22:49:53;100825.22;;;21.86;64.43
12213;BME280;6169;44.158;22.788;2023-06-01T22:54:57;100835.38;;;21.35;67.71
12213;BME280;6169;44.158;22.788;2023-06-01T22:59:59;100838.72;;;20.90;71.21
12213;BME280;6169;44.158;22.788;2023-06-01T23:05:03;100836.31;;;21.16;69.62
12213;BME280;6169;44.158;22.788;2023-06-01T23:10:07;100826.06;;;21.17;68.90
12213;BME280;6169;44.158;22.788;2023-06-01T23:15:11;100818.88;;;20.69;70.17
12213;BME280;6169;44.158;22.788;2023-06-01T23:20:17;100814.28;;;20.79;69.76
12213;BME280;6169;44.158;22.788;2023-06-01T23:25:19;100813.44;;;20.97;68.84
12213;BME280;6169;44.158;22.788;2023-06-01T23:30:21;100812.81;;;20.86;68.12
12213;BME280;6169;44.158;22.788;2023-06-01T23:35:26;100812.13;;;21.08;67.73
12213;BME280;6169;44.158;22.788;2023-06-01T23:40:28;100808.03;;;21.06;67.68
12213;BME280;6169;44.158;22.788;2023-06-01T23:45:30;100798.31;;;21.50;65.71
12213;BME280;6169;44.158;22.788;2023-06-01T23:50:35;100796.03;;;20.97;68.15
12213;BME280;6169;44.158;22.788;2023-06-01T23:55:37;100806.53;;;21.27;66.03
